Time;durP1;ratioP1;P1;durP2;ratioP2;P2;SDS_P1;SDS_P2;PMS_P1;PMS_P2;Temp;Humidity;BMP_temperature;BMP_pressure;BME280_temperature;BME280_humidity;BME280_pressure;Samples;Min_cycle;Max_cycle;Signal;HPM_P1;HPM_P2
2023/06/19 00:02:14;;;;;;;;;;;;;;;27.59;69.04;100644.63;5141276;28;19919;-67
2023/06/19 00:04:40;;;;;;;;;;;;;;;27.27;70.63;100654.75;5137787;28;20001;-67
2023/06/19 00:07:05;;;;;;;;;;;;;;;27.33;69.87;100672.69;5140341;28;19919;-66
2023/06/19 00:09:31;;;;;;;;;;;;;;;26.90;74.64;100649.31;5138457;28;19916;-67
2023/06/19 00:11:58;;;;;;;;;;;;;;;27.05;77.01;100648.97;5138535;28;19943;-68
2023/06/19 00:14:24;;;;;;;;;;;;;;;26.79;81.80;100653.41;5137515;28;19916;-68
2023/06/19 00:16:50;;;;;;;;;;;;;;;26.75;82.75;100648.53;5140843;28;19938;-67
2023/06/19 00:19:17;;;;;;;;;;;;;;;26.81;81.03;100664.88;5140040;28;20009;-67
2023/06/19 00:21:42;;;;;;;;;;;;;;;26.52;82.67;100661.41;5140596;28;19912;-67
2023/06/19 00:24:09;;;;;;;;;;;;;;;26.74;81.69;100673.53;5138118;28;19945;-66
2023/06/19 00:26:34;;;;;;;;;;;;;;;26.72;82.95;100667.56;5141818;27;19916;-67
2023/06/19 00:29:00;;;;;;;;;;;;;;;26.69;83.59;100668.97;5138416;28;19998;-67
2023/06/19 00:31:27;;;;;;;;;;;;;;;26.30;88.04;100667.66;5142073;27;19920;-67
2023/06/19 00:33:53;;;;;;;;;;;;;;;26.27;89.12;100679.22;5137218;28;19937;-67
2023/06/19 00:36:23;;;;;;;;;;;;;;;26.41;88.32;100685.50;5141012;28;19979;-67
2023/06/19 00:38:48;;;;;;;;;;;;;;;26.26;89.64;100696.75;5138719;28;19915;-69
2023/06/19 00:41:17;;;;;;;;;;;;;;;26.42;88.27;100689.84;5139919;27;19923;-66
2023/06/19 00:43:44;;;;;;;;;;;;;;;26.33;88.24;100691.72;5138033;28;19930;-66
2023/06/19 00:46:10;;;;;;;;;;;;;;;26.09;90.29;100692.69;5143417;28;19915;-67
2023/06/19 00:48:36;;;;;;;;;;;;;;;26.09;90.95;100683.66;5141136;28;20001;-66
2023/06/19 00:51:01;;;;;;;;;;;;;;;26.15;91.03;100696.97;5141031;28;19937;-67
2023/06/19 00:53:26;;;;;;;;;;;;;;;26.17;93.21;100699.41;5141215;28;20015;-67
2023/06/19 00:55:54;;;;;;;;;;;;;;;26.05;99.52;100695.22;5140563;27;19916;-67
2023/06/19 00:58:20;;;;;;;;;;;;;;;25.98;100.00;100692.09;5145119;27;19926;-67
2023/06/19 01:00:46;;;;;;;;;;;;;;;26.12;100.00;100696.75;5147430;27;19979;-66
2023/06/19 01:03:12;;;;;;;;;;;;;;;25.89;100.00;100716.63;5142957;27;19915;-67
2023/06/19 01:05:37;;;;;;;;;;;;;;;25.82;100.00;100707.97;5144818;27;19944;-66
2023/06/19 01:08:08;;;;;;;;;;;;;;;25.95;100.00;100713.78;5143937;27;19915;-67
2023/06/19 01:10:38;;;;;;;;;;;;;;;25.85;100.00;100714.78;5144524;27;19941;-67
2023/06/19 01:13:10;;;;;;;;;;;;;;;25.87;100.00;100716.13;5139254;27;19920;-67
2023/06/19 01:15:37;;;;;;;;;;;;;;;26.38;100.00;100727.22;5145025;27;19915;-67
2023/06/19 01:18:03;;;;;;;;;;;;;;;26.29;100.00;100734.53;5145626;27;19954;-66
2023/06/19 01:20:29;;;;;;;;;;;;;;;26.11;100.00;100717.88;5141978;27;19926;-66
2023/06/19 01:22:56;;;;;;;;;;;;;;;25.59;100.00;100731.69;5145214;27;19915;-66
2023/06/19 01:25:22;;;;;;;;;;;;;;;25.55;100.00;100720.50;5126653;27;19939;-66
2023/06/19 01:27:48;;;;;;;;;;;;;;;25.77;100.00;100719.88;5143429;27;19915;-67
2023/06/19 01:30:13;;;;;;;;;;;;;;;25.31;100.00;100734.31;5143780;27;19933;-67
2023/06/19 01:32:38;;;;;;;;;;;;;;;25.27;100.00;100738.75;5143154;27;19959;-66
2023/06/19 01:35:05;;;;;;;;;;;;;;;25.48;100.00;100758.41;5143389;27;19922;-67
2023/06/19 01:37:33;;;;;;;;;;;;;;;25.32;100.00;100735.94;5143167;27;19912;-68
2023/06/19 01:39:59;;;;;;;;;;;;;;;25.37;100.00;100741.31;5143241;27;19916;-66
2023/06/19 01:42:26;;;;;;;;;;;;;;;25.43;100.00;100736.56;5142402;27;19915;-66
2023/06/19 01:44:52;;;;;;;;;;;;;;;25.07;100.00;100732.47;5141567;27;19919;-67
2023/06/19 01:47:19;;;;;;;;;;;;;;;24.99;100.00;100739.41;5141964;27;19915;-67
2023/06/19 01:49:48;;;;;;;;;;;;;;;25.00;100.00;100738.31;5142233;27;19923;-67
2023/06/19 01:52:13;;;;;;;;;;;;;;;25.18;100.00;100746.81;5142648;27;20004;-66
2023/06/19 01:54:38;;;;;;;;;;;;;;;24.98;100.00;100748.75;5141512;27;19920;-66
2023/06/19 01:57:05;;;;;;;;;;;;;;;24.91;100.00;100753.75;5141622;27;19946;-66
2023/06/19 01:59:30;;;;;;;;;;;;;;;24.97;100.00;100738.91;5139712;27;19920;-66
2023/06/19 02:01:55;;;;;;;;;;;;;;;25.03;100.00;100751.38;5141824;27;19937;-67
2023/06/19 02:04:21;;;;;;;;;;;;;;;24.87;100.00;100758.19;5124093;28;19975;-66
2023/06/19 02:06:46;;;;;;;;;;;;;;;25.01;100.00;100750.03;5143784;27;19919;-66
2023/06/19 02:09:12;;;;;;;;;;;;;;;25.04;100.00;100758.50;5142754;27;19927;-66
2023/06/19 02:11:37;;;;;;;;;;;;;;;25.00;100.00;100746.50;5144578;27;19924;-66
2023/06/19 02:14:03;;;;;;;;;;;;;;;25.06;100.00;100760.94;5126193;27;19915;-66
2023/06/19 02:16:28;;;;;;;;;;;;;;;24.87;100.00;100766.38;5144038;27;19947;-66
2023/06/19 02:18:55;;;;;;;;;;;;;;;24.97;100.00;100754.50;5145949;27;19916;-66
2023/06/19 02:21:20;;;;;;;;;;;;;;;24.90;100.00;100755.69;5146299;27;19979;-67
2023/06/19 02:23:46;;;;;;;;;;;;;;;25.01;100.00;100766.47;5144409;27;19923;-66
2023/06/19 02:26:11;;;;;;;;;;;;;;;24.97;100.00;100769.00;5144287;27;19916;-67
2023/06/19 02:28:37;;;;;;;;;;;;;;;24.93;100.00;100767.97;5143981;27;19958;-66
2023/06/19 02:31:04;;;;;;;;;;;;;;;25.26;100.00;100754.34;5144756;27;19915;-67
2023/06/19 02:33:32;;;;;;;;;;;;;;;25.10;100.00;100748.28;5142532;27;19988;-66
2023/06/19 02:35:58;;;;;;;;;;;;;;;25.05;100.00;100754.66;5142530;27;19922;-66
2023/06/19 02:38:29;;;;;;;;;;;;;;;25.05;100.00;100760.13;5143155;27;19919;-68
2023/06/19 02:40:54;;;;;;;;;;;;;;;25.08;100.00;100763.38;5143499;27;19924;-67
2023/06/19 02:43:20;;;;;;;;;;;;;;;25.19;100.00;100773.88;5142009;27;19947;-66
2023/06/19 02:45:45;;;;;;;;;;;;;;;24.96;100.00;100778.31;5142287;27;19919;-67
2023/06/19 02:48:11;;;;;;;;;;;;;;;24.99;100.00;100772.25;5144326;27;19924;-67
2023/06/19 02:50:37;;;;;;;;;;;;;;;25.18;100.00;100774.19;5142829;27;19916;-66
2023/06/19 02:53:02;;;;;;;;;;;;;;;25.63;100.00;100774.59;5143221;27;19931;-67
2023/06/19 02:55:28;;;;;;;;;;;;;;;25.43;100.00;100769.41;5145932;27;19963;-67
2023/06/19 02:57:55;;;;;;;;;;;;;;;25.40;100.00;100770.81;5145159;27;19923;-67
2023/06/19 03:00:21;;;;;;;;;;;;;;;25.28;100.00;100770.47;5138939;27;19978;-67
2023/06/19 03:02:48;;;;;;;;;;;;;;;25.48;100.00;100772.91;5127444;28;19916;-67
2023/06/19 03:05:15;;;;;;;;;;;;;;;25.51;100.00;100771.50;5142688;27;19938;-68
2023/06/19 03:07:41;;;;;;;;;;;;;;;25.41;100.00;100791.59;5145042;27;20001;-67
2023/06/19 03:10:07;;;;;;;;;;;;;;;25.66;100.00;100780.59;5141834;27;19916;-67
2023/06/19 03:12:33;;;;;;;;;;;;;;;25.20;100.00;100791.09;5142250;27;19963;-66
2023/06/19 03:14:58;;;;;;;;;;;;;;;25.45;100.00;100787.16;5140160;27;20475;-68
2023/06/19 03:17:25;;;;;;;;;;;;;;;25.34;100.00;100781.03;5141390;27;19915;-68
2023/06/19 03:19:50;;;;;;;;;;;;;;;25.00;100.00;100794.94;5145423;27;19965;-67
2023/06/19 03:22:17;;;;;;;;;;;;;;;25.16;100.00;100788.13;5141320;27;19939;-67
2023/06/19 03:24:43;;;;;;;;;;;;;;;25.53;100.00;100791.19;5138992;27;19920;-68
2023/06/19 03:27:16;;;;;;;;;;;;;;;25.17;100.00;100816.31;5141158;27;19937;-67
2023/06/19 03:29:41;;;;;;;;;;;;;;;25.17;100.00;100786.22;5140987;27;19915;-66
2023/06/19 03:32:09;;;;;;;;;;;;;;;24.96;100.00;100800.19;5141212;27;19915;-66
2023/06/19 03:34:34;;;;;;;;;;;;;;;25.06;100.00;100799.25;5140806;27;19979;-67
2023/06/19 03:37:04;;;;;;;;;;;;;;;25.26;100.00;100791.81;5138761;27;19961;-67
2023/06/19 03:39:30;;;;;;;;;;;;;;;25.29;100.00;100792.06;5142334;27;19916;-68
2023/06/19 03:42:02;;;;;;;;;;;;;;;25.06;100.00;100802.78;5138608;27;19922;-66
2023/06/19 03:44:28;;;;;;;;;;;;;;;25.02;100.00;100809.94;5139505;27;19920;-67
2023/06/19 03:46:53;;;;;;;;;;;;;;;24.94;100.00;100818.00;5139768;27;19950;-67
2023/06/19 03:49:19;;;;;;;;;;;;;;;25.00;100.00;100827.75;5142070;27;19945;-67
2023/06/19 03:51:44;;;;;;;;;;;;;;;24.96;100.00;100822.06;5139574;27;19919;-66
2023/06/19 03:54:09;;;;;;;;;;;;;;;24.85;100.00;100826.84;5141573;28;19945;-67
2023/06/19 03:56:35;;;;;;;;;;;;;;;24.91;100.00;100822.94;5139136;27;19916;-67
2023/06/19 03:59:01;;;;;;;;;;;;;;;25.02;100.00;100820.06;5138904;28;19950;-67
2023/06/19 04:01:26;;;;;;;;;;;;;;;24.73;100.00;100829.97;5139906;28;19916;-66
2023/06/19 04:03:52;;;;;;;;;;;;;;;25.19;100.00;100825.06;5143989;28;19955;-67
2023/06/19 04:06:18;;;;;;;;;;;;;;;25.02;100.00;100826.34;5140502;28;20102;-67
2023/06/19 04:08:45;;;;;;;;;;;;;;;24.85;100.00;100865.16;5142057;28;19947;-66
2023/06/19 04:11:11;;;;;;;;;;;;;;;24.75;100.00;100833.25;5140662;28;19916;-66
2023/06/19 04:13:38;;;;;;;;;;;;;;;25.22;100.00;100835.41;5139466;28;19919;-66
2023/06/19 04:16:04;;;;;;;;;;;;;;;24.83;100.00;100850.94;5143017;28;19916;-67
2023/06/19 04:18:30;;;;;;;;;;;;;;;25.06;100.00;100845.75;5140558;28;19926;-67
2023/06/19 04:20:56;;;;;;;;;;;;;;;25.00;100.00;100853.19;5140607;28;19928;-69
2023/06/19 04:23:21;;;;;;;;;;;;;;;24.97;100.00;100862.00;5140650;28;19919;-68
2023/06/19 04:25:47;;;;;;;;;;;;;;;24.74;100.00;100872.63;5139594;28;19919;-67
2023/06/19 04:28:12;;;;;;;;;;;;;;;24.66;100.00;100875.19;5139747;28;19916;-67
2023/06/19 04:30:39;;;;;;;;;;;;;;;24.58;100.00;100882.91;5142547;27;19915;-67
2023/06/19 04:33:06;;;;;;;;;;;;;;;24.43;100.00;100888.53;5144383;27;20006;-66
2023/06/19 04:35:31;;;;;;;;;;;;;;;24.65;100.00;100876.28;5143411;27;19916;-69
2023/06/19 04:38:00;;;;;;;;;;;;;;;24.60;100.00;100882.59;5145198;27;19938;-66
2023/06/19 04:40:26;;;;;;;;;;;;;;;24.76;100.00;100886.84;5146252;27;19915;-67
2023/06/19 04:42:53;;;;;;;;;;;;;;;24.62;100.00;100891.34;5144974;27;19952;-67
2023/06/19 04:45:19;;;;;;;;;;;;;;;24.65;100.00;100898.16;5142012;27;19923;-67
2023/06/19 04:47:45;;;;;;;;;;;;;;;24.84;100.00;100900.97;5144437;27;19955;-68
2023/06/19 04:50:10;;;;;;;;;;;;;;;24.76;100.00;100891.47;5144059;27;19915;-67
2023/06/19 04:52:37;;;;;;;;;;;;;;;24.69;100.00;100893.72;5146634;27;19935;-66
2023/06/19 04:55:04;;;;;;;;;;;;;;;24.86;100.00;100898.75;5143264;27;19986;-67
2023/06/19 04:57:29;;;;;;;;;;;;;;;25.12;100.00;100890.25;5146321;27;19922;-67
2023/06/19 04:59:55;;;;;;;;;;;;;;;24.95;100.00;100896.19;5144289;27;19916;-68
2023/06/19 05:02:20;;;;;;;;;;;;;;;25.00;100.00;100896.97;5146236;27;19924;-67
2023/06/19 05:04:46;;;;;;;;;;;;;;;24.95;100.00;100896.19;5143460;27;19919;-67
2023/06/19 05:07:12;;;;;;;;;;;;;;;25.18;100.00;100902.78;5142208;27;19940;-67
2023/06/19 05:09:37;;;;;;;;;;;;;;;25.14;100.00;100912.66;5144717;27;19916;-67
2023/06/19 05:12:03;;;;;;;;;;;;;;;24.84;100.00;100901.81;5144617;27;19927;-67
2023/06/19 05:14:28;;;;;;;;;;;;;;;25.37;100.00;100908.28;5142426;27;19943;-66
2023/06/19 05:16:54;;;;;;;;;;;;;;;25.60;100.00;100914.00;5144479;27;19942;-68
2023/06/19 05:19:19;;;;;;;;;;;;;;;25.48;100.00;100911.72;5139955;27;19922;-66
2023/06/19 05:21:44;;;;;;;;;;;;;;;25.35;100.00;100908.56;5143238;27;19916;-66
2023/06/19 05:24:10;;;;;;;;;;;;;;;25.20;100.00;100914.25;5138589;27;20302;-68
2023/06/19 05:26:36;;;;;;;;;;;;;;;25.48;100.00;100911.72;5140465;27;19918;-67
2023/06/19 05:29:02;;;;;;;;;;;;;;;25.53;100.00;100910.84;5136288;28;19915;-66
2023/06/19 05:31:27;;;;;;;;;;;;;;;25.52;100.00;100904.53;5142634;27;19916;-66
2023/06/19 05:33:53;;;;;;;;;;;;;;;25.47;100.00;100915.56;5135610;28;19923;-67
2023/06/19 05:36:18;;;;;;;;;;;;;;;26.00;100.00;100921.91;5136804;27;19916;-67
2023/06/19 05:38:43;;;;;;;;;;;;;;;25.54;100.00;100913.25;5139126;27;19916;-67
2023/06/19 05:41:08;;;;;;;;;;;;;;;25.47;100.00;100927.31;5139029;27;19935;-66
2023/06/19 05:43:34;;;;;;;;;;;;;;;25.48;100.00;100917.19;5144325;27;19907;-66
2023/06/19 05:46:02;;;;;;;;;;;;;;;25.92;100.00;100916.00;5138540;27;19915;-67
2023/06/19 05:48:27;;;;;;;;;;;;;;;25.84;100.00;100922.16;5137160;27;20008;-67
2023/06/19 05:50:53;;;;;;;;;;;;;;;25.55;100.00;100925.03;5135674;27;19922;-67
2023/06/19 05:53:18;;;;;;;;;;;;;;;25.53;100.00;100933.53;5137911;27;19941;-67
2023/06/19 05:55:44;;;;;;;;;;;;;;;25.31;100.00;100923.94;5135545;27;19940;-67
2023/06/19 05:58:10;;;;;;;;;;;;;;;25.49;100.00;100927.03;5140179;27;20014;-67
2023/06/19 06:00:35;;;;;;;;;;;;;;;25.08;100.00;100941.19;5140472;27;19960;-67
2023/06/19 06:03:00;;;;;;;;;;;;;;;25.02;100.00;100971.34;5143802;27;19986;-67
2023/06/19 06:05:28;;;;;;;;;;;;;;;25.10;100.00;100947.19;5141253;27;20395;-67
2023/06/19 06:07:54;;;;;;;;;;;;;;;25.26;100.00;100954.09;5141773;27;19937;-67
2023/06/19 06:10:20;;;;;;;;;;;;;;;25.53;100.00;100941.75;5143688;27;19923;-67
2023/06/19 06:12:45;;;;;;;;;;;;;;;25.83;100.00;100953.38;5141153;27;19920;-66
2023/06/19 06:15:11;;;;;;;;;;;;;;;25.76;100.00;100974.84;5142058;27;19922;-67
2023/06/19 06:17:37;;;;;;;;;;;;;;;26.08;100.00;100958.78;5142408;27;20002;-68
2023/06/19 06:20:06;;;;;;;;;;;;;;;25.88;100.00;100964.28;5139599;27;19924;-67
2023/06/19 06:22:31;;;;;;;;;;;;;;;25.58;100.00;100971.78;5140288;27;19922;-66
2023/06/19 06:24:57;;;;;;;;;;;;;;;26.10;100.00;100973.81;5141723;27;19987;-67
2023/06/19 06:27:22;;;;;;;;;;;;;;;26.01;100.00;100967.38;5141191;27;19923;-67
2023/06/19 06:29:47;;;;;;;;;;;;;;;26.39;100.00;100985.72;5141762;27;19967;-67
2023/06/19 06:32:12;;;;;;;;;;;;;;;26.43;100.00;100995.00;5140404;27;19923;-67
2023/06/19 06:34:38;;;;;;;;;;;;;;;26.06;100.00;100989.19;5142129;27;19916;-68
2023/06/19 06:37:03;;;;;;;;;;;;;;;26.19;100.00;100988.50;5142984;27;19916;-67
2023/06/19 06:39:29;;;;;;;;;;;;;;;25.99;100.00;100992.34;5145254;27;19926;-67
2023/06/19 06:41:54;;;;;;;;;;;;;;;25.64;100.00;100999.94;5136380;27;19915;-67
2023/06/19 06:44:20;;;;;;;;;;;;;;;25.51;100.00;100992.44;5139357;27;19986;-68
2023/06/19 06:46:45;;;;;;;;;;;;;;;25.25;100.00;101004.47;5138444;27;19916;-67
2023/06/19 06:49:11;;;;;;;;;;;;;;;25.95;100.00;101012.41;5139971;27;19915;-66
2023/06/19 06:51:36;;;;;;;;;;;;;;;25.57;100.00;101004.97;5139252;27;19928;-67
2023/06/19 06:54:02;;;;;;;;;;;;;;;25.97;100.00;101021.13;5137589;27;19924;-65
2023/06/19 06:56:27;;;;;;;;;;;;;;;25.74;100.00;101042.81;5143712;27;19920;-66
2023/06/19 06:58:53;;;;;;;;;;;;;;;25.89;100.00;101039.03;5139867;27;19916;-67
2023/06/19 07:01:18;;;;;;;;;;;;;;;25.51;100.00;101037.06;5138832;27;19953;-68
2023/06/19 07:03:43;;;;;;;;;;;;;;;25.92;100.00;101025.56;5138514;27;19916;-65
2023/06/19 07:06:09;;;;;;;;;;;;;;;26.00;100.00;101029.59;5141612;27;19926;-67
2023/06/19 07:08:34;;;;;;;;;;;;;;;26.10;100.00;101042.31;5133922;27;19915;-66
2023/06/19 07:10:59;;;;;;;;;;;;;;;26.47;100.00;101048.91;5143939;27;19916;-67
2023/06/19 07:13:24;;;;;;;;;;;;;;;26.15;100.00;101058.69;5139987;27;19919;-66
2023/06/19 07:15:50;;;;;;;;;;;;;;;26.25;100.00;101056.94;5139279;27;19919;-66
2023/06/19 07:18:15;;;;;;;;;;;;;;;26.34;100.00;101055.16;5135543;27;19976;-66
2023/06/19 07:20:41;;;;;;;;;;;;;;;25.74;100.00;101061.97;5134289;27;19920;-65
2023/06/19 07:23:08;;;;;;;;;;;;;;;26.01;100.00;101072.31;5136741;27;19951;-66
2023/06/19 07:25:34;;;;;;;;;;;;;;;25.43;100.00;101060.38;5136320;27;19919;-67
2023/06/19 07:28:01;;;;;;;;;;;;;;;25.81;100.00;101076.13;5135042;28;19938;-66
2023/06/19 07:30:27;;;;;;;;;;;;;;;26.35;100.00;101073.25;5134677;28;19916;-67
2023/06/19 07:32:52;;;;;;;;;;;;;;;26.08;100.00;101071.94;5136686;27;19979;-66
2023/06/19 07:35:17;;;;;;;;;;;;;;;26.55;100.00;101079.53;5138045;27;19930;-67
2023/06/19 07:37:42;;;;;;;;;;;;;;;26.94;100.00;101081.09;5141955;27;19915;-68
2023/06/19 07:40:09;;;;;;;;;;;;;;;26.88;100.00;101090.53;5135139;27;19922;-67
2023/06/19 07:42:34;;;;;;;;;;;;;;;26.33;100.00;101086.44;5134456;28;19916;-67
2023/06/19 07:45:00;;;;;;;;;;;;;;;27.15;100.00;101083.47;5134239;28;19920;-68
2023/06/19 07:47:26;;;;;;;;;;;;;;;27.37;97.81;101090.22;5139817;27;19983;-66
2023/06/19 07:49:52;;;;;;;;;;;;;;;27.69;96.09;101094.03;5138673;28;19915;-67
2023/06/19 07:52:17;;;;;;;;;;;;;;;27.22;100.00;101092.16;5140914;27;19975;-67
2023/06/19 07:54:55;;;;;;;;;;;;;;;27.49;99.82;101099.56;5138580;27;19931;-66
2023/06/19 07:57:21;;;;;;;;;;;;;;;26.88;100.00;101099.59;5137702;28;19955;-66
2023/06/19 07:59:48;;;;;;;;;;;;;;;27.02;100.00;101105.13;5132925;28;19941;-67
2023/06/19 08:02:14;;;;;;;;;;;;;;;27.04;100.00;101111.09;5142552;28;19916;-67
2023/06/19 08:04:39;;;;;;;;;;;;;;;27.18;100.00;101105.66;5136096;28;19965;-66
2023/06/19 08:07:05;;;;;;;;;;;;;;;26.86;100.00;101109.22;5137909;27;19996;-67
2023/06/19 08:09:30;;;;;;;;;;;;;;;27.11;100.00;101110.72;5141632;27;19947;-67
2023/06/19 08:11:56;;;;;;;;;;;;;;;26.81;100.00;101115.56;5144573;27;19926;-68
2023/06/19 08:14:21;;;;;;;;;;;;;;;26.88;100.00;101112.47;5148495;27;19916;-66
2023/06/19 08:16:47;;;;;;;;;;;;;;;26.96;100.00;101113.72;5141383;27;19916;-67
2023/06/19 08:19:13;;;;;;;;;;;;;;;28.00;97.04;101105.16;5146301;27;19931;-66
2023/06/19 08:21:38;;;;;;;;;;;;;;;27.65;98.83;101114.97;5145860;27;19959;-66
2023/06/19 08:24:04;;;;;;;;;;;;;;;27.29;100.00;101128.25;5139768;27;19919;-67
2023/06/19 08:26:29;;;;;;;;;;;;;;;27.51;100.00;101124.03;5144812;27;19922;-66
2023/06/19 08:28:55;;;;;;;;;;;;;;;27.36;100.00;101114.13;5139660;27;19916;-66
2023/06/19 08:31:26;;;;;;;;;;;;;;;27.62;98.07;101122.69;5142869;27;19919;-66
2023/06/19 08:33:53;;;;;;;;;;;;;;;27.80;98.59;101131.16;5142577;27;19923;-66
2023/06/19 08:36:18;;;;;;;;;;;;;;;28.48;92.04;101125.88;5137368;27;19979;-67
2023/06/19 08:38:44;;;;;;;;;;;;;;;29.22;85.89;101128.50;5144908;27;19923;-67
2023/06/19 08:41:09;;;;;;;;;;;;;;;27.91;90.78;101137.25;5143707;27;19923;-66
2023/06/19 08:43:36;;;;;;;;;;;;;;;27.56;96.46;101143.16;5142409;27;19926;-66
2023/06/19 08:46:08;;;;;;;;;;;;;;;28.16;91.08;101127.69;5140181;27;20305;-67
2023/06/19 08:48:36;;;;;;;;;;;;;;;27.99;91.25;101136.53;5141683;27;19916;-67
2023/06/19 08:51:04;;;;;;;;;;;;;;;27.51;94.66;101143.25;5142598;27;19916;-68
2023/06/19 08:53:29;;;;;;;;;;;;;;;27.89;93.43;101134.00;5138942;27;19926;-66
2023/06/19 08:55:57;;;;;;;;;;;;;;;28.62;88.78;101133.28;5137649;27;19915;-67
2023/06/19 08:58:23;;;;;;;;;;;;;;;29.47;82.20;101145.50;5141848;27;19916;-66
2023/06/19 09:00:49;;;;;;;;;;;;;;;28.31;88.41;101144.94;5139138;27;20374;-67
2023/06/19 09:03:19;;;;;;;;;;;;;;;29.20;82.88;101147.28;5141456;27;20000;-66
2023/06/19 09:05:49;;;;;;;;;;;;;;;29.03;83.08;101146.03;5139758;27;19940;-68
2023/06/19 09:08:15;;;;;;;;;;;;;;;29.11;82.39;101149.97;5142350;27;19922;-67
2023/06/19 09:10:41;;;;;;;;;;;;;;;28.62;83.70;101152.53;5140928;27;19915;-67
2023/06/19 09:13:07;;;;;;;;;;;;;;;28.68;84.49;101151.28;5140556;27;20640;-68
2023/06/19 09:15:37;;;;;;;;;;;;;;;29.24;82.70;101162.03;5142026;27;19916;-67
2023/06/19 09:18:05;;;;;;;;;;;;;;;29.02;82.59;101166.44;5141984;27;19921;-68
2023/06/19 09:20:32;;;;;;;;;;;;;;;29.11;81.54;101160.97;5141625;27;19930;-66
2023/06/19 09:22:58;;;;;;;;;;;;;;;29.19;81.89;101159.41;5141499;27;19922;-67
2023/06/19 09:25:25;;;;;;;;;;;;;;;28.89;82.41;101159.88;5140052;27;19919;-67
2023/06/19 09:27:50;;;;;;;;;;;;;;;29.12;82.43;101161.81;5140351;27;19916;-67
2023/06/19 09:30:16;;;;;;;;;;;;;;;28.94;82.88;101177.38;5141233;27;19942;-68
2023/06/19 09:32:41;;;;;;;;;;;;;;;29.13;81.03;101186.25;5136457;27;19915;-67
2023/06/19 09:35:07;;;;;;;;;;;;;;;29.20;81.17;101194.06;5136884;27;19915;-67
2023/06/19 09:37:32;;;;;;;;;;;;;;;29.07;81.16;101186.72;5142306;27;19931;-67
2023/06/19 09:40:00;;;;;;;;;;;;;;;28.67;83.76;101190.09;5137145;27;19920;-68
2023/06/19 09:42:28;;;;;;;;;;;;;;;29.03;82.01;101178.28;5139966;27;19934;-67
2023/06/19 09:44:58;;;;;;;;;;;;;;;29.17;82.53;101189.22;5141879;27;19924;-69
2023/06/19 09:47:25;;;;;;;;;;;;;;;30.81;73.75;101195.13;5142415;27;19916;-68
2023/06/19 09:49:54;;;;;;;;;;;;;;;30.01;74.05;101207.97;5139747;27;19951;-66
2023/06/19 09:52:22;;;;;;;;;;;;;;;30.26;70.30;101203.66;5139697;27;19976;-67
2023/06/19 09:54:49;;;;;;;;;;;;;;;30.75;70.28;101206.34;5141462;27;19916;-67
2023/06/19 09:57:14;;;;;;;;;;;;;;;30.76;69.11;101205.22;5136539;27;19991;-66
2023/06/19 09:59:41;;;;;;;;;;;;;;;31.39;67.16;101206.75;5147317;27;19916;-66
2023/06/19 10:02:07;;;;;;;;;;;;;;;31.05;66.66;101214.75;5137748;27;19983;-68
2023/06/19 10:04:46;;;;;;;;;;;;;;;31.14;65.96;101211.16;5143979;27;19923;-67
2023/06/19 10:07:16;;;;;;;;;;;;;;;31.03;64.89;101225.31;5141406;27;19915;-67
2023/06/19 10:09:42;;;;;;;;;;;;;;;32.50;60.17;101222.72;5137953;27;19916;-68
2023/06/19 10:12:13;;;;;;;;;;;;;;;34.14;55.48;101231.97;5142185;27;19926;-68
2023/06/19 10:14:46;;;;;;;;;;;;;;;33.91;54.30;101221.31;5141543;27;19923;-67
2023/06/19 10:17:12;;;;;;;;;;;;;;;34.08;53.37;101227.84;5136440;27;19916;-68
2023/06/19 10:19:37;;;;;;;;;;;;;;;32.92;56.59;101221.91;5141042;27;19951;-67
2023/06/19 10:22:03;;;;;;;;;;;;;;;34.43;53.12;101225.34;5140385;27;19915;-67
2023/06/19 10:24:29;;;;;;;;;;;;;;;34.66;52.18;101216.53;5141071;27;19916;-67
2023/06/19 10:27:01;;;;;;;;;;;;;;;35.79;49.86;101219.50;5140722;27;19938;-67
2023/06/19 10:29:37;;;;;;;;;;;;;;;35.70;48.00;101217.72;5139668;27;19923;-68
2023/06/19 10:32:03;;;;;;;;;;;;;;;34.84;49.39;101219.00;5138865;27;19919;-68
2023/06/19 10:34:35;;;;;;;;;;;;;;;34.70;49.45;101227.72;5142990;27;19919;-69
2023/06/19 10:37:00;;;;;;;;;;;;;;;34.02;50.33;101219.75;5138151;27;20298;-68
2023/06/19 10:39:25;;;;;;;;;;;;;;;34.85;48.79;101220.63;5137983;27;19950;-69
2023/06/19 10:41:51;;;;;;;;;;;;;;;35.23;48.17;101216.50;5139383;27;20002;-68
2023/06/19 10:44:17;;;;;;;;;;;;;;;35.30;48.00;101216.72;5139044;27;19935;-68
2023/06/19 10:46:43;;;;;;;;;;;;;;;34.29;48.91;101213.81;5134810;28;19915;-68
2023/06/19 10:49:11;;;;;;;;;;;;;;;34.47;48.75;101220.69;5134321;27;19927;-67
2023/06/19 10:51:41;;;;;;;;;;;;;;;33.37;50.21;101227.81;5134362;27;19923;-68
2023/06/19 10:54:07;;;;;;;;;;;;;;;33.42;51.07;101222.91;5141355;27;19992;-68
2023/06/19 10:56:33;;;;;;;;;;;;;;;33.73;50.20;101232.63;5135971;27;19916;-68
2023/06/19 10:59:03;;;;;;;;;;;;;;;33.89;50.46;101215.31;5136370;27;19939;-68
2023/06/19 11:01:38;;;;;;;;;;;;;;;34.39;48.19;101218.88;5136164;27;19915;-68
2023/06/19 11:04:05;;;;;;;;;;;;;;;36.10;46.17;101213.13;5133237;27;19949;-68
2023/06/19 11:06:32;;;;;;;;;;;;;;;35.98;46.04;101230.72;5135332;27;20282;-68
2023/06/19 11:08:57;;;;;;;;;;;;;;;35.88;45.72;101225.72;5140521;27;19920;-68
2023/06/19 11:11:22;;;;;;;;;;;;;;;37.01;43.21;101240.09;5137407;27;19920;-68
2023/06/19 11:13:47;;;;;;;;;;;;;;;36.24;43.90;101222.97;5142366;27;19911;-68
2023/06/19 11:16:14;;;;;;;;;;;;;;;36.53;43.46;101231.97;5148114;27;19923;-68
2023/06/19 11:18:41;;;;;;;;;;;;;;;36.60;42.62;101229.34;5143161;27;20502;-68
2023/06/19 11:21:06;;;;;;;;;;;;;;;36.15;43.75;101226.75;5136779;27;19923;-68
2023/06/19 11:23:32;;;;;;;;;;;;;;;36.03;43.75;101230.47;5136504;27;19924;-69
2023/06/19 11:26:04;;;;;;;;;;;;;;;36.52;42.40;101238.72;5133415;28;19919;-70
2023/06/19 11:28:30;;;;;;;;;;;;;;;35.27;43.21;101234.09;5141845;27;19916;-68
2023/06/19 11:31:01;;;;;;;;;;;;;;;35.56;43.02;101223.75;5140848;27;19982;-68
2023/06/19 11:33:27;;;;;;;;;;;;;;;35.42;44.08;101217.78;5143975;27;19915;-69
2023/06/19 11:35:54;;;;;;;;;;;;;;;36.58;42.82;101223.31;5142950;27;19979;-69
2023/06/19 11:38:26;;;;;;;;;;;;;;;37.71;41.23;101224.22;5140230;27;19940;-68
2023/06/19 11:40:54;;;;;;;;;;;;;;;37.10;41.03;101223.97;5142512;27;19916;-68
2023/06/19 11:43:25;;;;;;;;;;;;;;;38.42;39.44;101238.88;5140176;27;19915;-69
2023/06/19 11:45:52;;;;;;;;;;;;;;;37.43;39.65;101227.34;5172654;27;19977;-70
2023/06/19 11:48:27;;;;;;;;;;;;;;;38.41;38.80;101231.66;5141829;27;19916;-67
2023/06/19 11:50:53;;;;;;;;;;;;;;;38.88;37.34;101232.25;5137381;27;19916;-69
2023/06/19 11:53:19;;;;;;;;;;;;;;;38.57;37.37;101223.13;5134122;28;19916;-69
2023/06/19 11:55:45;;;;;;;;;;;;;;;39.17;36.71;101220.59;5131679;28;19916;-69
2023/06/19 11:58:11;;;;;;;;;;;;;;;38.32;37.37;101215.19;5140529;27;19931;-69
2023/06/19 12:00:37;;;;;;;;;;;;;;;37.57;38.40;101212.88;5144709;27;19915;-69
2023/06/19 12:03:03;;;;;;;;;;;;;;;38.48;36.47;101219.78;5140679;27;19924;-68
2023/06/19 12:05:28;;;;;;;;;;;;;;;39.77;36.39;101213.91;5140451;27;19927;-70
2023/06/19 12:07:53;;;;;;;;;;;;;;;40.38;33.95;101227.53;5135196;28;19915;-69
2023/06/19 12:10:19;;;;;;;;;;;;;;;39.20;34.41;101226.19;5134462;28;19920;-69
2023/06/19 12:12:44;;;;;;;;;;;;;;;39.34;34.25;101221.94;5138338;28;19931;-68
2023/06/19 12:15:10;;;;;;;;;;;;;;;40.10;33.12;101226.13;5141296;28;20048;-71
2023/06/19 12:17:35;;;;;;;;;;;;;;;41.31;32.45;101227.41;5123405;28;19951;-69
2023/06/19 12:20:01;;;;;;;;;;;;;;;40.14;33.32;101221.38;5138959;28;19926;-69
2023/06/19 12:22:27;;;;;;;;;;;;;;;41.17;31.96;101217.78;5138894;28;19908;-69
2023/06/19 12:24:52;;;;;;;;;;;;;;;41.44;32.16;101220.19;5139430;28;19923;-70
2023/06/19 12:27:18;;;;;;;;;;;;;;;40.48;31.72;101216.75;5135021;28;19916;-70